KCNB

Myers Field Airport

Canby, Minnesota, USA
METAR KCNB 140235Z AUTO 24006KT 10SM CLR 02/M01 A3015 RMK AO2 T00231009
Observed Flight Rules
Dec-14 @ 02:35 UTC (38 minutes ago) Visual Flight Rules
Wind Visibility Clouds
240° at 6 knots 10 miles
  • Clear skies
Temperatures Readings
Current 2°C / 36°F
Dewpoint -1°C / 30°F
Humidity 81%
Altimeter 30.15" Hg
Pressure 1021 hPa
Elevation 364
METAR KCNB 140235Z AUTO 24006KT 10SM CLR 02/M01 A3015 RMK AO2 T00231009
Observed Flight Rules
Dec-14 @ 02:35 UTC
(38 minutes ago)
VFR
Wind Visibility
240° at 6 knots 10 miles
Clouds
  • Clear skies
Temperature Dewpoint
2°C / 36°F -1°C / 30°F
Humidity Altimeter Pressure
81% 30.15" Hg 1021 hPa